Time;durP1;ratioP1;P1;durP2;ratioP2;P2;SDS_P1;SDS_P2;PMS_P1;PMS_P2;Temp;Humidity;BMP_temperature;BMP_pressure;BME280_temperature;BME280_humidity;BME280_pressure;Samples;Min_cycle;Max_cycle;Signal;HPM_P1;HPM_P2
2022/07/16 00:03:51;;;;;;;4.88;4.07;;;27.50;32.50;;;;;;5066953;28;45173;-70
2022/07/16 00:06:17;;;;;;;4.88;3.55;;;27.40;32.50;;;;;;5069557;28;45395;-70
2022/07/16 00:08:44;;;;;;;4.70;3.67;;;27.40;32.60;;;;;;5066520;28;46160;-71
2022/07/16 00:11:11;;;;;;;3.97;3.58;;;27.40;32.50;;;;;;5069726;28;45214;-70
2022/07/16 00:13:39;;;;;;;4.88;3.38;;;27.40;32.60;;;;;;5068871;28;45280;-69
2022/07/16 00:16:06;;;;;;;5.50;3.55;;;27.40;32.70;;;;;;5069054;28;45303;-70
2022/07/16 00:21:22;;;;;;;5.43;3.60;;;27.40;32.70;;;;;;5066041;28;45329;-69
2022/07/16 00:23:49;;;;;;;4.88;3.72;;;27.30;33.20;;;;;;5069000;28;45230;-69
2022/07/16 00:26:16;;;;;;;4.88;3.53;;;27.40;32.60;;;;;;5069318;28;45342;-70
2022/07/16 00:28:43;;;;;;;5.47;3.45;;;27.30;32.80;;;;;;5068679;28;45300;-69
2022/07/16 00:31:10;;;;;;;4.65;3.38;;;27.30;32.80;;;;;;5066238;28;45285;-69
2022/07/16 00:33:37;;;;;;;3.85;3.22;;;27.30;32.80;;;;;;5068271;28;45194;-70
2022/07/16 00:36:04;;;;;;;3.88;3.35;;;27.30;32.90;;;;;;5069072;28;45406;-70
2022/07/16 00:38:33;;;;;;;4.38;3.33;;;27.20;32.80;;;;;;5068678;28;45276;-70
2022/07/16 00:40:59;;;;;;;4.30;3.17;;;27.20;32.80;;;;;;5068831;28;45317;-71
2022/07/16 00:43:26;;;;;;;4.15;3.13;;;27.20;32.80;;;;;;5069043;28;45375;-70
2022/07/16 00:45:53;;;;;;;4.10;3.60;;;27.20;32.90;;;;;;5069450;28;45188;-70
2022/07/16 00:48:20;;;;;;;3.45;3.13;;;27.20;33.00;;;;;;5068889;28;45324;-70
2022/07/16 00:50:47;;;;;;;3.65;3.03;;;27.20;33.10;;;;;;5068640;28;45461;-70
2022/07/16 00:53:13;;;;;;;3.90;3.50;;;27.10;33.60;;;;;;5069009;28;45307;-71
2022/07/16 00:55:42;;;;;;;3.63;3.30;;;27.10;33.00;;;;;;5069036;28;45495;-70
2022/07/16 00:58:08;;;;;;;3.95;3.47;;;27.10;33.00;;;;;;5068513;28;46488;-71
2022/07/16 01:00:35;;;;;;;3.80;3.13;;;27.00;33.20;;;;;;5068299;28;45440;-70
2022/07/16 01:03:02;;;;;;;3.75;3.30;;;27.00;33.20;;;;;;5068758;28;45328;-71
2022/07/16 01:05:29;;;;;;;3.97;2.85;;;27.00;33.80;;;;;;5068831;28;45403;-71
2022/07/16 01:07:56;;;;;;;4.57;3.00;;;27.00;33.20;;;;;;5067808;28;45216;-70
2022/07/16 01:10:23;;;;;;;3.42;2.95;;;27.00;33.30;;;;;;5068804;28;45237;-70
2022/07/16 01:12:51;;;;;;;4.57;3.00;;;27.00;33.30;;;;;;5068488;28;45215;-70
2022/07/16 01:15:18;;;;;;;3.25;2.95;;;26.90;33.30;;;;;;5068576;28;45438;-71
2022/07/16 01:17:45;;;;;;;3.60;3.30;;;26.90;33.30;;;;;;5068210;28;46808;-71
2022/07/16 01:20:12;;;;;;;2.97;2.60;;;26.90;33.40;;;;;;5068282;28;45163;-70
2022/07/16 01:22:39;;;;;;;3.53;3.05;;;26.90;33.50;;;;;;5068274;28;45192;-70
2022/07/16 01:25:10;;;;;;;4.38;2.92;;;26.90;33.50;;;;;;5068564;28;45320;-70
2022/07/16 01:27:38;;;;;;;3.20;2.88;;;26.80;33.50;;;;;;5068152;28;45171;-70
2022/07/16 01:30:08;;;;;;;4.15;2.80;;;26.80;33.60;;;;;;5068189;28;45214;-70
2022/07/16 01:32:34;;;;;;;3.63;2.83;;;26.80;33.60;;;;;;5068300;28;45314;-70
2022/07/16 01:35:02;;;;;;;4.57;3.17;;;26.80;34.30;;;;;;5068134;28;45225;-71
2022/07/16 01:37:29;;;;;;;3.83;2.78;;;26.80;33.70;;;;;;5067825;28;46936;-70
2022/07/16 01:39:56;;;;;;;3.08;2.60;;;26.70;33.60;;;;;;5068457;28;45470;-71
2022/07/16 01:42:24;;;;;;;3.33;2.60;;;26.70;33.70;;;;;;5068266;28;45324;-71
2022/07/16 01:44:51;;;;;;;3.17;2.72;;;26.70;33.70;;;;;;5068230;28;45193;-70
2022/07/16 01:47:17;;;;;;;2.53;2.33;;;26.70;33.80;;;;;;5067600;28;46400;-70
2022/07/16 01:49:45;;;;;;;3.20;2.67;;;26.70;33.80;;;;;;5067878;28;45212;-71
2022/07/16 01:52:15;;;;;;;2.58;2.38;;;26.60;33.80;;;;;;5067878;28;45267;-70
2022/07/16 01:54:42;;;;;;;2.90;2.63;;;26.60;33.80;;;;;;5067831;28;45191;-71
2022/07/16 01:57:09;;;;;;;4.20;2.70;;;26.60;33.80;;;;;;5067100;28;46470;-70
2022/07/16 01:59:37;;;;;;;2.60;2.40;;;26.60;33.90;;;;;;5067404;28;45354;-70
2022/07/16 02:02:04;;;;;;;3.50;2.60;;;26.60;33.90;;;;;;5067774;28;45315;-70
2022/07/16 02:04:31;;;;;;;3.55;2.55;;;26.60;33.90;;;;;;5068062;28;45355;-70
2022/07/16 02:06:58;;;;;;;2.78;2.47;;;26.50;33.90;;;;;;5067312;28;45474;-70
2022/07/16 02:09:24;;;;;;;2.70;2.38;;;26.50;34.00;;;;;;5067290;28;45184;-69
2022/07/16 02:11:51;;;;;;;2.78;2.40;;;26.50;34.00;;;;;;5067412;28;45492;-70
2022/07/16 02:14:18;;;;;;;2.72;2.45;;;26.50;34.00;;;;;;5067345;28;45407;-70
2022/07/16 02:16:46;;;;;;;4.75;2.20;;;26.50;34.00;;;;;;5067173;28;45538;-70
2022/07/16 02:19:13;;;;;;;6.05;2.70;;;26.40;34.00;;;;;;5067379;28;45266;-70
2022/07/16 02:21:40;;;;;;;3.88;2.42;;;26.40;34.10;;;;;;5067518;28;45128;-70
2022/07/16 02:24:07;;;;;;;4.65;2.50;;;26.40;34.00;;;;;;5067522;28;45383;-70
2022/07/16 02:26:34;;;;;;;3.05;2.50;;;26.40;34.10;;;;;;5066936;28;46685;-69
2022/07/16 02:29:01;;;;;;;3.30;2.42;;;26.40;34.10;;;;;;5067058;28;45305;-70
2022/07/16 02:31:28;;;;;;;3.22;2.50;;;26.30;34.10;;;;;;5067146;28;45284;-70
2022/07/16 02:33:56;;;;;;;2.60;2.40;;;26.30;34.10;;;;;;5067251;28;45173;-71
2022/07/16 02:36:23;;;;;;;2.90;2.45;;;26.30;34.10;;;;;;5066843;28;46301;-70
2022/07/16 02:38:50;;;;;;;4.32;2.25;;;26.30;34.20;;;;;;5066832;28;45313;-69
2022/07/16 02:41:16;;;;;;;2.90;2.55;;;26.30;34.20;;;;;;5066711;28;45307;-69
2022/07/16 02:43:43;;;;;;;3.17;2.25;;;26.20;34.20;;;;;;5067179;28;45302;-70
2022/07/16 02:46:10;;;;;;;2.50;2.30;;;26.20;34.20;;;;;;5066714;28;45289;-71
2022/07/16 02:48:37;;;;;;;2.60;2.40;;;26.20;34.30;;;;;;5066423;28;45315;-70
2022/07/16 02:51:06;;;;;;;3.45;2.35;;;26.20;34.30;;;;;;5066711;28;45433;-70
2022/07/16 02:53:33;;;;;;;3.92;2.30;;;26.10;34.30;;;;;;5066991;28;45183;-70
2022/07/16 02:56:00;;;;;;;3.03;2.53;;;26.10;34.30;;;;;;5066491;28;46711;-70
2022/07/16 02:58:26;;;;;;;2.33;2.08;;;26.10;34.40;;;;;;5066752;28;45201;-70
2022/07/16 03:00:53;;;;;;;2.22;2.08;;;26.10;34.40;;;;;;5066874;28;45342;-69
2022/07/16 03:03:20;;;;;;;2.40;2.17;;;26.10;34.40;;;;;;5066919;28;45411;-70
2022/07/16 03:05:47;;;;;;;2.78;2.42;;;26.10;34.50;;;;;;5066278;28;45489;-70
2022/07/16 03:08:15;;;;;;;2.92;2.13;;;26.10;34.50;;;;;;5066592;28;45296;-70
2022/07/16 03:10:42;;;;;;;2.55;2.10;;;26.00;34.50;;;;;;5066485;28;45287;-70
2022/07/16 03:13:09;;;;;;;2.60;2.40;;;26.00;34.50;;;;;;5066667;28;45295;-69
2022/07/16 03:15:35;;;;;;;2.88;2.42;;;26.00;34.50;;;;;;5066162;28;46793;-70
2022/07/16 03:18:02;;;;;;;2.38;2.17;;;26.00;34.50;;;;;;5066146;28;45209;-70
2022/07/16 03:20:29;;;;;;;2.38;2.00;;;25.90;34.50;;;;;;5066585;28;45180;-69
2022/07/16 03:22:56;;;;;;;2.25;2.10;;;25.90;34.50;;;;;;5066459;28;45392;-70
2022/07/16 03:25:24;;;;;;;2.25;2.05;;;25.90;34.50;;;;;;5065914;28;46366;-70
2022/07/16 03:27:51;;;;;;;2.25;2.05;;;25.90;34.60;;;;;;5065530;28;45344;-70
2022/07/16 03:30:18;;;;;;;2.50;2.05;;;25.90;34.60;;;;;;5066240;28;45164;-70
2022/07/16 03:32:45;;;;;;;2.85;2.20;;;25.90;34.60;;;;;;5066557;28;45184;-70
2022/07/16 03:35:12;;;;;;;2.55;2.10;;;25.90;34.60;;;;;;5065687;28;45730;-71
2022/07/16 03:38:57;;;;;;;3.17;2.00;;;25.80;34.60;;;;;;5066050;28;45331;-70
2022/07/16 03:40:28;;;;;;;2.40;2.00;;;25.80;34.60;;;;;;5065892;28;45318;-71
2022/07/16 03:42:55;;;;;;;2.33;1.92;;;25.80;34.60;;;;;;5066444;28;45374;-70
2022/07/16 03:45:22;;;;;;;2.40;2.00;;;25.80;34.50;;;;;;5065845;28;46408;-70
2022/07/16 03:47:49;;;;;;;2.72;1.92;;;25.80;34.60;;;;;;5065973;28;45323;-70
2022/07/16 03:50:16;;;;;;;2.25;2.05;;;25.70;34.50;;;;;;5066025;28;45255;-70
2022/07/16 03:52:43;;;;;;;2.20;2.00;;;25.70;34.50;;;;;;5066424;28;45403;-70
2022/07/16 03:55:10;;;;;;;2.33;2.00;;;25.70;34.70;;;;;;5066039;28;45196;-70
2022/07/16 03:57:38;;;;;;;3.22;2.30;;;25.70;34.60;;;;;;5065692;28;45189;-70
2022/07/16 04:00:06;;;;;;;2.20;2.00;;;25.70;34.70;;;;;;5066223;28;45368;-70
2022/07/16 04:02:33;;;;;;;2.38;2.10;;;25.60;34.60;;;;;;5066131;28;45391;-70
2022/07/16 04:05:00;;;;;;;2.13;1.85;;;25.60;35.20;;;;;;5065702;28;45237;-70
2022/07/16 04:07:26;;;;;;;2.28;2.05;;;25.60;34.60;;;;;;5065985;28;45648;-70
2022/07/16 04:09:53;;;;;;;2.03;1.75;;;25.60;34.70;;;;;;5066070;28;45331;-71
2022/07/16 04:12:22;;;;;;;2.00;1.88;;;25.60;34.70;;;;;;5065934;28;45260;-71
2022/07/16 04:14:50;;;;;;;2.53;1.85;;;25.50;34.60;;;;;;5065557;28;45210;-70
2022/07/16 04:17:17;;;;;;;2.20;2.00;;;25.50;34.70;;;;;;5065683;28;45212;-70
2022/07/16 04:19:44;;;;;;;2.28;2.00;;;25.50;34.70;;;;;;5064998;28;45312;-69
2022/07/16 04:22:11;;;;;;;2.85;1.92;;;25.50;34.70;;;;;;5065744;28;45276;-70
2022/07/16 04:24:38;;;;;;;2.15;2.05;;;25.50;34.60;;;;;;5065470;28;45279;-70
2022/07/16 04:27:05;;;;;;;2.20;1.90;;;25.50;34.70;;;;;;5065512;28;45201;-70
2022/07/16 04:29:31;;;;;;;2.78;2.10;;;25.50;34.70;;;;;;5065548;28;45232;-70
2022/07/16 04:32:00;;;;;;;2.15;1.95;;;25.50;35.40;;;;;;5065721;28;45469;-70
2022/07/16 04:34:27;;;;;;;2.75;2.00;;;25.40;34.70;;;;;;5064998;28;46669;-70
2022/07/16 04:36:54;;;;;;;2.35;2.08;;;25.40;34.80;;;;;;5067560;28;45153;-69
2022/07/16 04:39:20;;;;;;;2.40;2.20;;;25.40;34.80;;;;;;5068894;28;45280;-70
2022/07/16 04:41:47;;;;;;;2.10;2.00;;;25.40;34.80;;;;;;5069165;28;45430;-70
2022/07/16 04:44:14;;;;;;;3.30;2.00;;;25.40;34.90;;;;;;5068792;28;45661;-69
2022/07/16 04:46:41;;;;;;;2.80;1.70;;;25.40;34.80;;;;;;5068590;28;45371;-70
2022/07/16 04:49:09;;;;;;;2.55;2.30;;;25.40;34.80;;;;;;5068894;28;45256;-70
2022/07/16 04:51:36;;;;;;;2.20;1.83;;;25.30;34.80;;;;;;5068740;28;45214;-69
2022/07/16 04:54:03;;;;;;;1.90;1.80;;;25.30;34.80;;;;;;5068523;28;45415;-71
2022/07/16 04:56:29;;;;;;;1.98;1.88;;;25.30;34.90;;;;;;5068409;28;45425;-70
2022/07/16 04:58:56;;;;;;;2.30;1.90;;;25.30;34.90;;;;;;5068638;28;45366;-70
2022/07/16 05:01:23;;;;;;;2.10;1.80;;;25.30;34.80;;;;;;5068674;28;45325;-70
2022/07/16 05:03:50;;;;;;;2.88;1.60;;;25.30;34.90;;;;;;5067919;28;46642;-69
2022/07/16 05:06:18;;;;;;;2.00;1.80;;;25.30;34.80;;;;;;5067826;28;45175;-69
2022/07/16 05:08:45;;;;;;;1.85;1.75;;;25.30;34.90;;;;;;5068422;28;45263;-70
2022/07/16 05:11:12;;;;;;;1.75;1.65;;;25.20;34.90;;;;;;5068527;28;45290;-70
2022/07/16 05:13:39;;;;;;;2.03;1.83;;;25.20;34.90;;;;;;5068084;28;46353;-69
2022/07/16 05:16:06;;;;;;;1.98;1.77;;;25.20;34.90;;;;;;5068265;28;45296;-70
2022/07/16 05:18:33;;;;;;;2.65;1.70;;;25.20;34.90;;;;;;5068300;28;45149;-69
2022/07/16 05:20:59;;;;;;;1.90;1.75;;;25.20;34.90;;;;;;5068500;28;45273;-71
2022/07/16 05:23:28;;;;;;;2.20;1.85;;;25.20;34.90;;;;;;5067953;28;46676;-70
2022/07/16 05:25:54;;;;;;;2.63;1.92;;;25.20;34.80;;;;;;5068081;28;45245;-70
2022/07/16 05:28:21;;;;;;;2.50;1.65;;;25.20;34.90;;;;;;5068214;28;45281;-70
2022/07/16 05:30:48;;;;;;;1.80;1.70;;;25.20;34.80;;;;;;5068244;28;45248;-71
2022/07/16 05:33:15;;;;;;;2.55;1.60;;;25.20;34.80;;;;;;5067608;28;46657;-70
2022/07/16 05:35:42;;;;;;;2.10;1.90;;;25.20;35.40;;;;;;5067772;28;45360;-70
2022/07/16 05:38:09;;;;;;;1.77;1.67;;;25.20;34.80;;;;;;5067935;28;45240;-70
2022/07/16 05:40:37;;;;;;;1.92;1.83;;;25.20;34.80;;;;;;5068114;28;45454;-70
2022/07/16 05:43:04;;;;;;;1.90;1.80;;;25.20;34.80;;;;;;5067709;28;46410;-69
2022/07/16 05:45:31;;;;;;;3.75;1.70;;;25.20;34.90;;;;;;5067612;28;45335;-69
2022/07/16 05:47:57;;;;;;;1.90;1.63;;;25.20;34.80;;;;;;5066813;28;45392;-71
2022/07/16 05:50:24;;;;;;;2.08;1.98;;;25.20;34.90;;;;;;5068800;28;45377;-70
2022/07/16 05:52:51;;;;;;;2.15;1.63;;;25.20;34.90;;;;;;5068162;28;46674;-70
2022/07/16 05:55:18;;;;;;;2.35;1.80;;;25.20;34.80;;;;;;5068159;28;45364;-70
2022/07/16 05:57:46;;;;;;;2.08;1.80;;;25.20;34.90;;;;;;5068374;28;45208;-69
2022/07/16 06:00:13;;;;;;;1.67;1.50;;;25.20;34.90;;;;;;5067464;28;45474;-69
2022/07/16 06:02:40;;;;;;;2.00;1.80;;;25.20;35.00;;;;;;5067386;28;47538;-70
2022/07/16 06:05:08;;;;;;;1.70;1.52;;;25.20;35.00;;;;;;5067475;28;45205;-70
2022/07/16 06:07:35;;;;;;;1.58;1.48;;;25.20;35.00;;;;;;5068087;28;45335;-70
2022/07/16 06:10:02;;;;;;;1.98;1.60;;;25.20;35.00;;;;;;5068204;28;45478;-69
2022/07/16 06:12:29;;;;;;;1.75;1.65;;;25.20;35.00;;;;;;5065593;28;45331;-71
2022/07/16 06:14:57;;;;;;;1.70;1.60;;;25.20;35.10;;;;;;5068029;28;45218;-71
2022/07/16 06:17:23;;;;;;;2.03;1.83;;;25.20;35.00;;;;;;5068350;28;45333;-70
2022/07/16 06:19:50;;;;;;;5.13;1.80;;;25.20;35.10;;;;;;5068099;28;45415;-69
2022/07/16 06:22:17;;;;;;;1.70;1.60;;;25.20;35.10;;;;;;5067447;28;45338;-70
2022/07/16 06:24:44;;;;;;;2.20;1.90;;;25.20;35.00;;;;;;5067658;28;45362;-69
2022/07/16 06:27:11;;;;;;;2.60;1.88;;;25.20;35.10;;;;;;5067689;27;45248;-70
2022/07/16 06:29:38;;;;;;;2.75;1.77;;;25.20;35.10;;;;;;5067522;28;45201;-71
2022/07/16 06:32:07;;;;;;;2.30;1.63;;;25.20;35.10;;;;;;5067075;28;45726;-70
2022/07/16 06:34:34;;;;;;;2.00;1.90;;;25.20;35.20;;;;;;5066883;28;45257;-70
2022/07/16 06:37:01;;;;;;;1.75;1.65;;;25.20;35.30;;;;;;5067410;28;45204;-69
2022/07/16 06:39:28;;;;;;;1.85;1.75;;;25.20;35.20;;;;;;5067707;28;45235;-70
2022/07/16 06:41:55;;;;;;;2.13;1.85;;;25.20;35.20;;;;;;5067067;28;47270;-69
2022/07/16 06:44:22;;;;;;;1.95;1.85;;;25.20;35.20;;;;;;5066382;28;45315;-69
2022/07/16 06:46:49;;;;;;;2.03;1.83;;;25.20;35.20;;;;;;5066893;28;45284;-69
2022/07/16 06:49:17;;;;;;;1.98;1.80;;;25.20;35.20;;;;;;5067511;28;45283;-70
2022/07/16 06:51:44;;;;;;;1.80;1.70;;;25.20;35.20;;;;;;5066995;28;46628;-70
2022/07/16 06:54:11;;;;;;;1.65;1.55;;;25.20;35.20;;;;;;5066987;28;45339;-70
2022/07/16 06:56:38;;;;;;;2.78;1.88;;;25.20;35.30;;;;;;5067178;28;45276;-70
2022/07/16 06:59:04;;;;;;;2.97;1.70;;;25.20;35.30;;;;;;5064155;28;45325;-69
2022/07/16 07:01:31;;;;;;;1.77;1.67;;;25.30;35.30;;;;;;5066658;28;46377;-70
2022/07/16 07:03:58;;;;;;;1.60;1.50;;;25.30;35.30;;;;;;5066769;28;45208;-70
2022/07/16 07:06:26;;;;;;;1.92;1.80;;;25.30;35.30;;;;;;5064261;28;45279;-70
2022/07/16 07:08:53;;;;;;;1.52;1.40;;;25.30;35.40;;;;;;5067184;28;45242;-70
2022/07/16 07:11:20;;;;;;;1.85;1.70;;;25.30;35.30;;;;;;5066670;28;45477;-72
2022/07/16 07:13:48;;;;;;;2.00;1.60;;;25.30;35.30;;;;;;5066771;28;45157;-72
2022/07/16 07:16:14;;;;;;;2.58;1.83;;;25.30;35.30;;;;;;5066596;28;45236;-72
2022/07/16 07:18:41;;;;;;;1.88;1.63;;;25.30;35.30;;;;;;5066811;28;45299;-70
2022/07/16 07:21:08;;;;;;;1.67;1.58;;;25.30;35.30;;;;;;5066355;28;45432;-70
2022/07/16 07:23:36;;;;;;;2.40;1.60;;;25.40;35.40;;;;;;5066674;28;45248;-70
2022/07/16 07:26:03;;;;;;;1.45;1.35;;;25.40;35.40;;;;;;5066675;28;45192;-71
2022/07/16 07:28:30;;;;;;;1.70;1.60;;;25.40;35.40;;;;;;5066731;28;45235;-70
2022/07/16 07:30:57;;;;;;;1.70;1.60;;;25.40;35.40;;;;;;5065704;28;47526;-69
2022/07/16 07:33:24;;;;;;;1.70;1.60;;;25.40;35.50;;;;;;5066232;28;45314;-70
2022/07/16 07:35:51;;;;;;;2.22;1.80;;;25.40;36.10;;;;;;5066564;28;45201;-70
2022/07/16 07:38:18;;;;;;;1.60;1.50;;;25.40;35.50;;;;;;5066575;28;45633;-69
2022/07/16 07:40:46;;;;;;;2.22;1.70;;;25.40;35.50;;;;;;5066373;28;47613;-69
2022/07/16 07:43:13;;;;;;;1.95;1.80;;;25.50;35.60;;;;;;5066156;28;45518;-70
2022/07/16 07:45:40;;;;;;;1.80;1.70;;;25.50;35.60;;;;;;5066365;28;45271;-69
2022/07/16 07:48:07;;;;;;;1.80;1.70;;;25.50;35.70;;;;;;5066697;28;45533;-70
2022/07/16 07:50:33;;;;;;;1.98;1.77;;;25.50;35.60;;;;;;5066163;28;45263;-70
2022/07/16 07:53:00;;;;;;;2.33;1.80;;;25.50;35.70;;;;;;5066062;28;45184;-70
2022/07/16 07:55:27;;;;;;;2.65;1.60;;;25.50;35.80;;;;;;5066450;28;45365;-70
2022/07/16 07:57:55;;;;;;;1.70;1.60;;;25.50;35.80;;;;;;5066346;28;45286;-70
2022/07/16 08:00:22;;;;;;;1.90;1.70;;;25.50;35.80;;;;;;5066073;28;47253;-69
2022/07/16 08:02:49;;;;;;;2.13;1.67;;;25.50;35.80;;;;;;5065741;28;45375;-70
2022/07/16 08:05:16;;;;;;;1.90;1.73;;;25.60;36.50;;;;;;5066157;28;45308;-70
2022/07/16 08:07:43;;;;;;;1.83;1.70;;;25.60;35.80;;;;;;5066181;28;45237;-70
2022/07/16 08:10:10;;;;;;;2.00;1.80;;;25.60;35.90;;;;;;5065805;28;46649;-70
2022/07/16 08:12:39;;;;;;;2.10;1.60;;;25.60;35.80;;;;;;5069433;28;45149;-69
2022/07/16 08:15:08;;;;;;;2.00;1.80;;;25.60;35.80;;;;;;5069428;28;45424;-68
2022/07/16 08:17:35;;;;;;;2.75;1.75;;;25.70;35.80;;;;;;5068934;28;45348;-69
2022/07/16 08:20:02;;;;;;;3.05;2.22;;;25.60;36.10;;;;;;5069349;28;45167;-69
2022/07/16 08:22:28;;;;;;;2.13;1.90;;;25.60;36.20;;;;;;5069434;28;45200;-71
2022/07/16 08:27:54;;;;;;;2.20;2.00;;;25.60;36.20;;;;;;5026632;28;45339;-71
2022/07/16 08:30:22;;;;;;;3.67;2.00;;;25.50;36.20;;;;;;5026837;28;45367;-72
2022/07/16 08:32:49;;;;;;;3.80;2.60;;;25.50;36.20;;;;;;5045017;28;45269;-69
2022/07/16 08:35:16;;;;;;;2.25;2.05;;;25.50;36.10;;;;;;5069320;28;45480;-69
2022/07/16 08:37:43;;;;;;;4.80;2.08;;;25.50;36.10;;;;;;5069463;28;45408;-72
2022/07/16 08:40:12;;;;;;;3.13;2.35;;;25.50;36.30;;;;;;5069128;28;45241;-70
2022/07/16 08:42:39;;;;;;;3.17;2.40;;;25.60;36.40;;;;;;5068848;28;45196;-71
2022/07/16 08:45:07;;;;;;;4.22;2.40;;;25.50;36.30;;;;;;5069211;28;45327;-71
2022/07/16 08:47:35;;;;;;;2.40;2.20;;;25.60;36.30;;;;;;5069147;28;45307;-68
2022/07/16 08:50:02;;;;;;;6.30;2.30;;;25.60;36.00;;;;;;5068678;28;46349;-71
2022/07/16 08:52:29;;;;;;;2.42;2.20;;;25.60;36.20;;;;;;5069043;28;45148;-69
2022/07/16 08:54:57;;;;;;;2.22;2.00;;;25.60;36.40;;;;;;5068955;28;45248;-72
2022/07/16 08:57:24;;;;;;;4.55;2.28;;;25.60;36.40;;;;;;5069094;28;45430;-69
2022/07/16 08:59:51;;;;;;;14.32;8.27;;;25.70;36.50;;;;;;5066078;28;45274;-71
2022/07/16 09:02:18;;;;;;;5.30;3.13;;;25.70;36.50;;;;;;5066009;28;45131;-69
2022/07/16 09:04:46;;;;;;;4.47;2.30;;;25.70;36.90;;;;;;5081214;28;45514;-69
2022/07/16 09:07:13;;;;;;;4.10;2.38;;;25.70;37.10;;;;;;5075108;27;45460;-69
2022/07/16 09:09:40;;;;;;;4.82;2.60;;;25.60;37.30;;;;;;5088552;27;45718;-70
2022/07/16 09:12:07;;;;;;;2.78;2.20;;;25.70;37.20;;;;;;5071184;27;45464;-68
2022/07/16 09:14:34;;;;;;;4.85;2.55;;;25.70;37.30;;;;;;5077477;27;45184;-70
2022/07/16 09:17:01;;;;;;;2.40;2.15;;;25.70;37.50;;;;;;5077608;27;45231;-70
2022/07/16 09:19:28;;;;;;;5.35;2.22;;;25.70;37.40;;;;;;5070670;28;46439;-69
2022/07/16 09:22:01;;;;;;;3.17;2.50;;;25.80;37.30;;;;;;5075350;27;45498;-69
2022/07/16 09:24:36;;;;;;;4.10;2.30;;;25.80;37.80;;;;;;5068344;28;45375;-69
2022/07/16 09:27:04;;;;;;;3.42;2.50;;;25.80;37.30;;;;;;5065919;28;45268;-70
2022/07/16 09:29:34;;;;;;;2.95;2.15;;;25.80;37.10;;;;;;5067869;28;45181;-70
2022/07/16 09:32:01;;;;;;;5.93;2.05;;;25.80;36.80;;;;;;5067796;28;45197;-69
2022/07/16 09:34:28;;;;;;;3.58;2.13;;;25.80;36.80;;;;;;5067712;28;45360;-70
2022/07/16 09:37:00;;;;;;;2.85;2.28;;;25.70;36.80;;;;;;5068257;28;45301;-69
2022/07/16 09:39:27;;;;;;;6.35;2.35;;;25.70;36.90;;;;;;5067997;28;47340;-69
2022/07/16 09:41:54;;;;;;;3.75;2.25;;;25.80;37.00;;;;;;5068095;28;45346;-70
2022/07/16 09:44:22;;;;;;;3.83;2.20;;;25.90;37.00;;;;;;5067909;28;45255;-69
2022/07/16 09:47:00;;;;;;;3.88;2.30;;;25.80;36.50;;;;;;5068152;28;45399;-70
2022/07/16 09:49:27;;;;;;;10.10;5.05;;;25.90;36.50;;;;;;5067714;28;45224;-69
2022/07/16 09:51:54;;;;;;;6.50;5.10;;;25.90;36.50;;;;;;5068256;28;45438;-69
2022/07/16 09:54:29;;;;;;;8.30;6.22;;;26.00;36.50;;;;;;5067644;28;45364;-70
2022/07/16 09:57:15;;;;;;;5.43;4.53;;;26.00;36.10;;;;;;5068088;28;45241;-71
2022/07/16 09:59:42;;;;;;;4.72;2.50;;;26.00;36.00;;;;;;5067342;28;46388;-70
2022/07/16 10:02:09;;;;;;;4.55;3.33;;;26.00;35.50;;;;;;5067792;28;45210;-70
2022/07/16 10:04:36;;;;;;;4.90;2.15;;;26.10;35.80;;;;;;5067729;28;45215;-70
2022/07/16 10:07:03;;;;;;;2.83;2.33;;;26.10;35.30;;;;;;5067931;28;45309;-71
2022/07/16 10:09:31;;;;;;;2.30;2.10;;;26.00;35.20;;;;;;5067492;28;47344;-70
2022/07/16 10:12:06;;;;;;;2.63;2.05;;;26.10;35.30;;;;;;5067365;28;45191;-70
2022/07/16 10:14:35;;;;;;;3.63;2.35;;;26.20;35.20;;;;;;5067577;28;45246;-69
2022/07/16 10:17:07;;;;;;;2.40;2.13;;;26.30;35.10;;;;;;5067719;28;45555;-70
2022/07/16 10:19:36;;;;;;;2.97;2.30;;;26.30;34.80;;;;;;5066932;28;45273;-71
2022/07/16 10:22:20;;;;;;;2.45;2.20;;;26.30;34.60;;;;;;5066736;28;45346;-70
2022/07/16 10:24:50;;;;;;;2.38;1.90;;;26.30;34.20;;;;;;5067583;28;45426;-70
2022/07/16 10:27:20;;;;;;;1.75;1.65;;;26.40;34.50;;;;;;5066876;28;45241;-70
2022/07/16 10:29:47;;;;;;;4.63;2.10;;;26.40;34.40;;;;;;5066417;28;47273;-69
2022/07/16 10:32:30;;;;;;;2.95;2.00;;;26.50;34.20;;;;;;5067072;28;45323;-69
2022/07/16 10:34:59;;;;;;;2.25;1.90;;;26.50;33.90;;;;;;5065893;28;45366;-69
2022/07/16 10:37:27;;;;;;;2.30;1.92;;;26.50;33.70;;;;;;5067321;28;45336;-69
2022/07/16 10:40:04;;;;;;;3.22;2.17;;;26.50;33.70;;;;;;5066694;28;45460;-69
2022/07/16 10:42:30;;;;;;;5.25;2.20;;;26.60;33.70;;;;;;5067044;28;45418;-70
2022/07/16 10:44:57;;;;;;;6.25;2.25;;;26.60;33.40;;;;;;5067121;28;44773;-70
2022/07/16 10:47:43;;;;;;;2.47;2.00;;;26.60;33.10;;;;;;5067228;28;45403;-69
2022/07/16 10:50:14;;;;;;;4.03;2.15;;;26.60;33.30;;;;;;5066626;28;47015;-70
2022/07/16 10:52:42;;;;;;;3.83;1.92;;;26.60;33.40;;;;;;5066976;28;45217;-70
2022/07/16 10:55:11;;;;;;;2.08;1.88;;;26.70;33.30;;;;;;5066968;28;45371;-70
2022/07/16 10:57:40;;;;;;;2.13;1.92;;;26.80;33.20;;;;;;5066935;28;45327;-70
2022/07/16 11:00:08;;;;;;;3.40;1.95;;;26.80;33.00;;;;;;5066518;28;46463;-69
2022/07/16 11:02:38;;;;;;;3.35;1.90;;;26.80;33.00;;;;;;5066382;28;45346;-69
2022/07/16 11:05:06;;;;;;;3.97;2.30;;;26.90;33.00;;;;;;5066573;28;45187;-70
2022/07/16 11:07:34;;;;;;;3.33;1.95;;;26.90;32.90;;;;;;5066610;28;45441;-69
2022/07/16 11:10:01;;;;;;;3.97;1.80;;;26.90;32.50;;;;;;5066296;28;46636;-69
2022/07/16 11:12:31;;;;;;;3.15;2.00;;;26.90;32.70;;;;;;5066498;28;45248;-71
2022/07/16 11:14:59;;;;;;;2.72;1.63;;;27.00;32.40;;;;;;5066861;28;45318;-71
2022/07/16 11:17:30;;;;;;;2.17;1.63;;;27.00;32.20;;;;;;5066963;28;45318;-71
2022/07/16 11:19:59;;;;;;;3.58;1.98;;;27.10;32.30;;;;;;5066362;28;47327;-70
2022/07/16 11:22:27;;;;;;;6.30;1.85;;;27.10;32.30;;;;;;5066427;28;45240;-70
2022/07/16 11:24:55;;;;;;;7.47;1.85;;;27.20;32.50;;;;;;5066636;28;45205;-70
2022/07/16 11:27:25;;;;;;;2.40;2.20;;;27.30;32.30;;;;;;5066773;28;45239;-71
2022/07/16 11:29:56;;;;;;;5.38;2.30;;;27.30;32.10;;;;;;5066187;28;45301;-71
2022/07/16 11:32:23;;;;;;;4.22;1.80;;;27.40;32.20;;;;;;5066496;28;45292;-70
2022/07/16 11:34:50;;;;;;;3.05;1.95;;;27.50;31.90;;;;;;5066321;28;45303;-71
2022/07/16 11:37:17;;;;;;;4.40;1.80;;;27.50;31.70;;;;;;5066011;28;45454;-68
2022/07/16 11:39:44;;;;;;;1.67;1.58;;;27.50;31.60;;;;;;5065796;28;45260;-70
2022/07/16 11:42:10;;;;;;;2.08;1.85;;;27.60;31.60;;;;;;5066500;28;45265;-70
2022/07/16 11:44:38;;;;;;;3.92;1.67;;;27.60;31.50;;;;;;5066082;28;45265;-70
2022/07/16 11:47:08;;;;;;;4.22;1.83;;;27.60;31.50;;;;;;5069202;28;45406;-69
2022/07/16 11:49:36;;;;;;;4.45;2.13;;;27.70;31.60;;;;;;5069399;28;45722;-70
2022/07/16 11:52:04;;;;;;;2.88;1.88;;;27.80;31.70;;;;;;5069007;28;45336;-71
2022/07/16 11:54:31;;;;;;;2.92;1.77;;;27.90;31.70;;;;;;5069662;28;45395;-70
2022/07/16 11:56:58;;;;;;;2.08;1.90;;;28.00;31.20;;;;;;5069409;28;45197;-70
2022/07/16 11:59:25;;;;;;;3.40;1.75;;;28.00;31.10;;;;;;5069329;28;46722;-70
2022/07/16 12:02:03;;;;;;;6.30;2.05;;;28.00;30.50;;;;;;5068939;28;45249;-70
2022/07/16 12:04:38;;;;;;;2.40;1.80;;;28.00;30.80;;;;;;5068997;28;45336;-69
2022/07/16 12:07:06;;;;;;;2.97;1.92;;;28.00;30.80;;;;;;5069284;28;45442;-69
2022/07/16 12:09:34;;;;;;;3.97;1.83;;;28.10;30.80;;;;;;5068807;28;45459;-69
2022/07/16 12:12:04;;;;;;;2.33;1.92;;;28.20;30.70;;;;;;5068834;28;45165;-69
2022/07/16 12:14:48;;;;;;;4.68;1.85;;;28.20;30.60;;;;;;5069023;28;45318;-70
2022/07/16 12:17:22;;;;;;;3.08;1.95;;;28.30;30.50;;;;;;5068992;28;45473;-69
2022/07/16 12:20:15;;;;;;;3.30;1.90;;;28.30;30.30;;;;;;5068491;28;45265;-69
2022/07/16 12:22:53;;;;;;;2.85;1.73;;;28.40;30.00;;;;;;5068499;28;45244;-69
2022/07/16 12:25:22;;;;;;;2.05;1.90;;;28.40;30.00;;;;;;5068684;28;45296;-70
2022/07/16 12:27:50;;;;;;;4.57;1.90;;;28.40;30.00;;;;;;5068906;28;45285;-69
2022/07/16 12:30:17;;;;;;;3.17;1.67;;;28.50;30.00;;;;;;5068288;28;45260;-69
2022/07/16 12:32:49;;;;;;;2.40;1.70;;;28.50;29.80;;;;;;5068280;28;45376;-69
2022/07/16 12:35:36;;;;;;;1.80;1.70;;;28.60;29.70;;;;;;5068074;28;45217;-69
2022/07/16 12:38:03;;;;;;;1.98;1.48;;;28.70;29.50;;;;;;5068568;28;45360;-69
2022/07/16 12:40:30;;;;;;;2.35;1.80;;;28.70;29.40;;;;;;5067873;28;46401;-69
2022/07/16 12:42:57;;;;;;;3.72;1.70;;;28.70;29.50;;;;;;5068483;28;45390;-69
2022/07/16 12:45:24;;;;;;;3.90;1.75;;;28.80;29.40;;;;;;5068312;28;45302;-70
2022/07/16 12:47:51;;;;;;;3.85;1.90;;;28.90;29.30;;;;;;5068596;28;45134;-69
2022/07/16 12:50:19;;;;;;;2.17;1.73;;;29.00;29.30;;;;;;5068047;28;47866;-69
2022/07/16 12:52:47;;;;;;;2.90;1.67;;;29.00;29.10;;;;;;5068105;28;45316;-69
2022/07/16 13:00:42;;;;;;;6.25;1.90;;;29.10;28.50;;;;;;5065094;28;45224;-70
2022/07/16 13:03:09;;;;;;;2.15;1.80;;;29.10;28.50;;;;;;5067961;28;45283;-70
2022/07/16 13:05:36;;;;;;;6.25;4.45;;;29.10;28.30;;;;;;5068209;28;45207;-70